createdAt,value
2022-09-07T00:01:07.493Z,2.60
2022-09-07T00:03:37.583Z,3.10
2022-09-07T00:06:08.977Z,3.38
2022-09-07T00:08:36.875Z,3.53
2022-09-07T00:11:07.610Z,3.40
2022-09-07T00:13:37.857Z,3.75
2022-09-07T00:16:12.068Z,3.55
2022-09-07T00:18:45.094Z,3.88
2022-09-07T00:21:15.238Z,4.18
2022-09-07T00:23:42.716Z,4.35
2022-09-07T00:26:13.756Z,3.70
2022-09-07T00:28:42.336Z,4.30
2022-09-07T00:31:13.527Z,4.40
2022-09-07T00:33:42.126Z,4.60
2022-09-07T00:36:09.785Z,4.40
2022-09-07T00:38:37.831Z,4.38
2022-09-07T00:41:05.923Z,4.00
2022-09-07T00:43:35.205Z,4.30
2022-09-07T00:46:04.508Z,4.35
2022-09-07T00:48:39.723Z,4.90
2022-09-07T00:51:12.177Z,4.25
2022-09-07T00:53:43.835Z,4.72
2022-09-07T00:56:11.910Z,4.88
2022-09-07T00:58:42.735Z,4.55
2022-09-07T01:01:13.970Z,4.07
2022-09-07T01:03:47.700Z,3.78
2022-09-07T01:06:25.242Z,4.05
2022-09-07T01:08:55.027Z,4.00
2022-09-07T01:11:23.022Z,4.10
2022-09-07T01:13:51.961Z,4.03
2022-09-07T01:16:37.998Z,4.53
2022-09-07T01:19:27.181Z,4.47
2022-09-07T01:21:57.494Z,4.45
2022-09-07T01:24:35.425Z,4.25
2022-09-07T01:27:47.601Z,4.82
2022-09-07T01:30:17.953Z,4.13
2022-09-07T01:33:04.477Z,2.95
2022-09-07T01:35:53.599Z,2.78
2022-09-07T01:38:30.378Z,3.83
2022-09-07T01:41:07.823Z,3.25
2022-09-07T01:43:53.497Z,3.40
2022-09-07T01:46:29.474Z,3.15
2022-09-07T01:49:23.015Z,3.15
2022-09-07T01:51:57.218Z,3.17
2022-09-07T01:54:32.091Z,2.95
2022-09-07T01:57:08.970Z,3.33
2022-09-07T01:59:42.731Z,3.60
2022-09-07T02:02:16.787Z,3.30
2022-09-07T02:05:02.109Z,2.97
2022-09-07T02:07:45.388Z,3.38
2022-09-07T02:10:26.860Z,3.40
2022-09-07T02:13:16.584Z,2.97
2022-09-07T02:15:57.917Z,3.10
2022-09-07T02:18:29.667Z,3.00
2022-09-07T02:23:30.745Z,3.13
2022-09-07T02:26:07.334Z,3.20
2022-09-07T02:28:36.755Z,2.85
2022-09-07T02:31:04.681Z,3.47
2022-09-07T02:33:32.299Z,3.50
2022-09-07T02:36:01.727Z,2.95
2022-09-07T02:38:30.233Z,3.35
2022-09-07T02:41:00.639Z,3.80
2022-09-07T02:43:30.392Z,3.58
2022-09-07T02:46:14.927Z,3.20
2022-09-07T02:48:54.505Z,3.40
2022-09-07T02:51:52.348Z,4.07
2022-09-07T02:54:28.783Z,3.70
2022-09-07T02:57:03.913Z,4.30
2022-09-07T03:00:01.513Z,4.05
2022-09-07T03:02:33.008Z,4.70
2022-09-07T03:05:21.623Z,4.40
2022-09-07T03:08:07.440Z,4.15
2022-09-07T03:10:37.779Z,3.50
2022-09-07T03:13:06.186Z,4.15
2022-09-07T03:15:33.668Z,4.20
2022-09-07T03:18:01.462Z,4.65
2022-09-07T03:20:30.864Z,4.68
2022-09-07T03:22:58.278Z,4.40
2022-09-07T03:25:25.696Z,4.40
2022-09-07T03:27:53.254Z,5.50
2022-09-07T03:30:20.751Z,5.65
2022-09-07T03:32:48.375Z,4.82
2022-09-07T03:35:15.948Z,5.70
2022-09-07T03:37:44.111Z,6.32
2022-09-07T03:40:14.248Z,6.75
2022-09-07T03:42:42.009Z,7.30
2022-09-07T03:45:10.555Z,6.65
2022-09-07T03:47:39.015Z,6.90
2022-09-07T03:50:07.519Z,7.68
2022-09-07T03:52:36.378Z,7.15
2022-09-07T03:55:04.991Z,6.95
2022-09-07T03:57:32.424Z,6.93
2022-09-07T03:59:59.869Z,7.20
2022-09-07T04:02:27.454Z,7.25
2022-09-07T04:04:54.932Z,7.28
2022-09-07T04:07:22.481Z,7.10
2022-09-07T04:09:51.460Z,7.53
2022-09-07T04:12:19.060Z,7.70
2022-09-07T04:14:46.554Z,7.50
2022-09-07T04:17:14.063Z,7.68
2022-09-07T04:19:41.628Z,7.70
2022-09-07T04:22:09.085Z,8.35
2022-09-07T04:24:36.564Z,8.50
2022-09-07T04:27:04.123Z,7.68
2022-09-07T04:29:31.560Z,8.32
2022-09-07T04:31:58.970Z,8.98
2022-09-07T04:34:26.418Z,8.90
2022-09-07T04:36:53.860Z,8.40
2022-09-07T04:39:21.273Z,8.15
2022-09-07T04:41:48.679Z,8.70
2022-09-07T04:44:17.125Z,9.25
2022-09-07T04:46:44.793Z,8.52
2022-09-07T04:49:12.340Z,9.30
2022-09-07T04:51:42.650Z,10.32
2022-09-07T04:54:10.782Z,8.80
2022-09-07T04:56:38.243Z,9.65
2022-09-07T04:59:05.813Z,9.95
2022-09-07T05:01:34.210Z,10.15
2022-09-07T05:04:03.354Z,9.60
2022-09-07T05:06:30.910Z,10.07
2022-09-07T05:08:59.167Z,9.35
2022-09-07T05:11:29.471Z,10.25
2022-09-07T05:13:59.596Z,10.75
2022-09-07T05:16:28.755Z,10.90
2022-09-07T05:18:58.896Z,10.02
2022-09-07T05:21:28.968Z,10.05
2022-09-07T05:23:58.098Z,10.10
2022-09-07T05:26:28.036Z,10.38
2022-09-07T05:31:46.575Z,9.75
2022-09-07T05:34:31.241Z,10.65
2022-09-07T05:36:59.755Z,10.70
2022-09-07T05:39:28.267Z,9.57
2022-09-07T05:41:56.457Z,10.27
2022-09-07T05:47:11.958Z,10.20
2022-09-07T05:49:39.519Z,11.38
2022-09-07T05:52:07.056Z,12.43
2022-09-07T05:54:34.801Z,14.20
2022-09-07T05:57:03.653Z,13.55
2022-09-07T05:59:31.392Z,12.60
2022-09-07T06:01:59.594Z,15.18
2022-09-07T06:04:27.146Z,14.63
2022-09-07T06:12:29.690Z,12.23
2022-09-07T06:14:57.215Z,9.95
2022-09-07T06:17:24.678Z,8.10
2022-09-07T06:19:52.236Z,8.73
2022-09-07T06:22:19.682Z,8.45
2022-09-07T06:24:47.136Z,8.88
2022-09-07T06:27:14.602Z,9.38
2022-09-07T06:29:42.211Z,10.15
2022-09-07T06:34:57.280Z,7.47
2022-09-07T06:37:25.061Z,8.02
2022-09-07T06:39:52.607Z,7.70
2022-09-07T06:42:20.072Z,7.78
2022-09-07T06:44:52.660Z,7.78
2022-09-07T06:47:20.571Z,7.13
2022-09-07T06:49:47.967Z,8.20
2022-09-07T06:52:15.425Z,8.30
2022-09-07T06:57:27.100Z,7.70
2022-09-07T06:59:54.696Z,8.77
2022-09-07T07:02:22.119Z,8.57
2022-09-07T07:04:50.420Z,8.57
2022-09-07T07:07:17.930Z,9.48
2022-09-07T07:09:45.417Z,9.55
2022-09-07T07:12:12.853Z,11.32
2022-09-07T07:14:44.651Z,10.70
2022-09-07T07:17:13.224Z,9.27
2022-09-07T07:19:40.826Z,7.65
2022-09-07T07:22:23.960Z,7.05
2022-09-07T07:24:55.894Z,7.00
2022-09-07T07:27:23.452Z,6.68
2022-09-07T07:29:52.456Z,7.05
2022-09-07T07:32:20.119Z,7.80
2022-09-07T07:34:47.543Z,7.05
2022-09-07T07:37:15.976Z,7.30
2022-09-07T07:42:32.565Z,6.47
2022-09-07T07:47:53.527Z,6.35
2022-09-07T07:50:36.262Z,5.13
2022-09-07T07:55:54.133Z,5.32
2022-09-07T07:58:21.761Z,4.68
2022-09-07T08:00:56.984Z,4.28
2022-09-07T08:03:27.217Z,3.88
2022-09-07T08:05:55.482Z,3.90
2022-09-07T08:08:23.745Z,3.88
2022-09-07T08:10:54.025Z,3.20
2022-09-07T08:13:21.625Z,4.13
2022-09-07T08:15:49.792Z,2.50
2022-09-07T08:18:20.075Z,3.05
2022-09-07T08:20:47.383Z,3.40
2022-09-07T08:23:15.433Z,2.78
2022-09-07T08:25:53.581Z,3.00
2022-09-07T08:28:23.456Z,2.88
2022-09-07T08:30:51.032Z,3.20
2022-09-07T08:33:18.772Z,3.00
2022-09-07T08:35:56.303Z,2.60
2022-09-07T08:38:24.260Z,2.65
2022-09-07T08:40:51.903Z,2.60
2022-09-07T08:43:47.132Z,2.60
2022-09-07T08:46:30.991Z,2.10
2022-09-07T08:49:00.031Z,1.63
2022-09-07T08:51:44.174Z,1.85
2022-09-07T08:54:14.106Z,1.50
2022-09-07T08:57:20.537Z,1.60
2022-09-07T08:59:51.289Z,1.60
2022-09-07T09:02:41.994Z,1.50
2022-09-07T09:05:38.172Z,1.48
2022-09-07T09:08:25.148Z,1.60
2022-09-07T09:11:06.058Z,1.48
2022-09-07T09:13:52.355Z,1.45
2022-09-07T09:16:27.032Z,1.67
2022-09-07T09:19:15.461Z,1.70
2022-09-07T09:21:44.281Z,2.03
2022-09-07T09:24:19.883Z,1.80
2022-09-07T09:26:53.113Z,1.50
2022-09-07T09:29:22.923Z,1.40
2022-09-07T09:31:50.174Z,1.17
2022-09-07T09:34:23.795Z,1.33
2022-09-07T09:36:56.682Z,1.58
2022-09-07T09:39:30.942Z,1.30
2022-09-07T09:42:03.377Z,1.60
2022-09-07T09:44:37.497Z,1.17
2022-09-07T09:49:54.448Z,1.40
2022-09-07T09:52:34.812Z,1.30
2022-09-07T10:01:24.806Z,1.25
2022-09-07T10:06:24.420Z,1.75
2022-09-07T10:08:56.540Z,1.27
2022-09-07T10:14:35.323Z,1.83
2022-09-07T10:17:13.205Z,1.40
2022-09-07T10:19:42.965Z,1.80
2022-09-07T10:22:32.202Z,1.40
2022-09-07T10:25:00.947Z,1.60
2022-09-07T10:27:32.020Z,1.63
2022-09-07T10:30:01.277Z,1.48
2022-09-07T10:32:37.524Z,1.75
2022-09-07T10:35:28.101Z,1.50
2022-09-07T10:38:27.712Z,1.70
2022-09-07T10:41:09.738Z,1.60
2022-09-07T10:43:49.838Z,1.58
2022-09-07T10:49:25.337Z,1.40
2022-09-07T10:52:05.441Z,1.60
2022-09-07T10:54:46.804Z,1.60
2022-09-07T10:57:26.817Z,1.80
2022-09-07T11:00:13.502Z,1.80
2022-09-07T11:06:06.617Z,2.10
2022-09-07T11:09:16.654Z,1.80
2022-09-07T11:12:24.909Z,2.30
2022-09-07T11:15:13.201Z,1.90
2022-09-07T11:18:01.274Z,1.90
2022-09-07T11:20:34.496Z,1.90
2022-09-07T11:23:20.410Z,1.98
2022-09-07T11:26:07.496Z,1.95
2022-09-07T11:31:46.057Z,1.85
2022-09-07T11:34:25.991Z,1.90
2022-09-07T11:37:01.007Z,1.98
2022-09-07T11:40:06.424Z,2.28
2022-09-07T11:43:18.758Z,2.10
2022-09-07T11:45:51.321Z,2.13
2022-09-07T11:48:30.451Z,1.98
2022-09-07T11:51:02.651Z,2.30
2022-09-07T11:53:34.470Z,2.33
2022-09-07T11:56:18.173Z,1.85
2022-09-07T11:59:05.665Z,2.20
2022-09-07T12:01:38.842Z,2.40
2022-09-07T12:04:13.204Z,2.03
2022-09-07T12:07:06.943Z,2.10
2022-09-07T12:10:00.801Z,2.50
2022-09-07T12:12:46.736Z,2.20
2022-09-07T12:15:35.009Z,2.40
2022-09-07T12:18:14.446Z,2.17
2022-09-07T12:20:47.847Z,2.38
2022-09-07T12:23:15.086Z,1.88
2022-09-07T12:25:45.763Z,2.25
2022-09-07T12:28:24.643Z,2.50
2022-09-07T12:31:04.537Z,2.30
2022-09-07T12:33:38.863Z,2.15
2022-09-07T12:36:28.014Z,2.08
2022-09-07T12:39:25.261Z,2.30
2022-09-07T12:42:37.885Z,2.63
2022-09-07T12:45:37.723Z,2.40
2022-09-07T12:48:16.187Z,1.85
2022-09-07T12:51:16.052Z,2.67
2022-09-07T12:54:16.762Z,2.20
2022-09-07T13:00:32.489Z,2.40
2022-09-07T13:09:30.550Z,2.10
2022-09-07T13:12:04.832Z,1.92
2022-09-07T13:14:36.963Z,2.20
2022-09-07T13:17:38.879Z,2.00
2022-09-07T13:20:08.918Z,2.40
2022-09-07T13:22:36.201Z,2.20
2022-09-07T13:25:27.182Z,2.17
2022-09-07T13:28:01.636Z,2.17
2022-09-07T13:30:34.726Z,2.00
2022-09-07T13:33:24.132Z,2.08
2022-09-07T13:35:54.289Z,2.40
2022-09-07T13:38:21.791Z,2.05
2022-09-07T13:40:52.484Z,2.30
2022-09-07T13:43:25.383Z,2.60
2022-09-07T13:45:55.875Z,2.13
2022-09-07T13:48:35.523Z,2.80
2022-09-07T13:51:13.245Z,2.65
2022-09-07T13:53:56.419Z,2.30
2022-09-07T13:56:39.265Z,2.72
2022-09-07T13:59:22.684Z,2.25
2022-09-07T14:01:50.747Z,2.45
2022-09-07T14:04:32.255Z,2.70
2022-09-07T14:07:06.595Z,2.65
2022-09-07T14:09:34.911Z,2.55
2022-09-07T14:12:02.434Z,2.45
2022-09-07T14:14:32.961Z,2.67
2022-09-07T14:17:00.194Z,2.30
2022-09-07T14:19:33.738Z,2.67
2022-09-07T14:22:07.176Z,2.17
2022-09-07T14:24:40.531Z,3.17
2022-09-07T14:27:20.694Z,2.75
2022-09-07T14:29:48.482Z,2.45
2022-09-07T14:32:24.563Z,2.58
2022-09-07T14:34:52.499Z,2.53
2022-09-07T14:37:21.894Z,2.40
2022-09-07T14:39:50.831Z,2.97
2022-09-07T14:42:23.754Z,2.45
2022-09-07T14:45:11.570Z,2.70
2022-09-07T14:47:40.660Z,2.80
2022-09-07T14:50:20.367Z,2.65
2022-09-07T14:53:34.288Z,2.70
2022-09-07T14:55:40.675Z,2.60
2022-09-07T14:58:22.839Z,2.75
2022-09-07T15:03:57.464Z,2.80
2022-09-07T15:09:30.727Z,2.63
2022-09-07T15:12:36.101Z,2.70
2022-09-07T15:15:27.090Z,2.38
2022-09-07T15:18:01.861Z,2.67
2022-09-07T15:20:41.700Z,2.72
2022-09-07T15:23:17.482Z,2.45
2022-09-07T15:25:51.968Z,2.90
2022-09-07T15:34:11.544Z,2.60
2022-09-07T15:36:42.896Z,2.13
2022-09-07T15:39:19.955Z,2.58
2022-09-07T15:41:47.490Z,2.50
2022-09-07T15:44:16.018Z,2.30
2022-09-07T15:47:43.177Z,2.35
2022-09-07T15:49:31.707Z,2.20
2022-09-07T15:52:06.611Z,2.75
2022-09-07T15:54:39.225Z,2.80
2022-09-07T15:59:54.284Z,2.40
2022-09-07T16:05:12.252Z,2.13
2022-09-07T16:10:31.136Z,2.70
2022-09-07T16:13:01.207Z,2.50
2022-09-07T16:15:31.317Z,2.40
2022-09-07T16:17:58.776Z,2.40
2022-09-07T16:20:26.860Z,2.33
2022-09-07T16:25:43.291Z,2.63
2022-09-07T16:28:11.116Z,2.30
2022-09-07T16:30:40.675Z,2.92
2022-09-07T16:33:08.468Z,2.45
2022-09-07T16:35:38.007Z,2.53
2022-09-07T16:40:52.823Z,2.60
2022-09-07T16:43:20.533Z,2.83
2022-09-07T16:46:03.219Z,2.70
2022-09-07T16:48:32.302Z,2.55
2022-09-07T16:51:02.550Z,2.25
2022-09-07T16:53:32.238Z,2.53
2022-09-07T16:56:04.799Z,2.72
2022-09-07T16:58:37.662Z,2.92
2022-09-07T17:01:06.762Z,2.50
2022-09-07T17:03:35.791Z,2.60
2022-09-07T17:06:06.198Z,2.55
2022-09-07T17:08:34.718Z,2.50
2022-09-07T17:11:06.141Z,2.58
2022-09-07T17:13:34.729Z,2.08
2022-09-07T17:16:13.747Z,2.67
2022-09-07T17:21:37.043Z,2.75
2022-09-07T17:24:06.511Z,3.10
2022-09-07T17:26:34.364Z,2.72
2022-09-07T17:29:02.042Z,3.47
2022-09-07T17:34:22.062Z,3.45
2022-09-07T17:36:49.501Z,3.53
2022-09-07T17:39:18.639Z,3.58
2022-09-07T17:41:48.332Z,3.85
2022-09-07T17:44:16.050Z,3.33
2022-09-07T17:46:43.557Z,3.92
2022-09-07T17:49:13.943Z,3.60
2022-09-07T17:51:41.441Z,3.50
2022-09-07T17:54:13.462Z,3.70
2022-09-07T17:56:41.764Z,3.53
2022-09-07T18:01:58.820Z,3.63
2022-09-07T18:04:26.435Z,3.50
2022-09-07T18:06:54.525Z,3.20
2022-09-07T18:09:21.941Z,3.10
2022-09-07T18:11:50.310Z,3.25
2022-09-07T18:14:19.032Z,3.20
2022-09-07T18:16:49.219Z,3.60
2022-09-07T18:19:18.230Z,3.20
2022-09-07T18:21:48.922Z,3.63
2022-09-07T18:24:19.905Z,3.45
2022-09-07T18:26:50.460Z,3.70
2022-09-07T18:29:36.831Z,3.13
2022-09-07T18:32:09.392Z,3.83
2022-09-07T18:34:40.673Z,3.78
2022-09-07T18:37:08.924Z,3.60
2022-09-07T18:39:36.721Z,3.78
2022-09-07T18:42:04.270Z,3.78
2022-09-07T18:47:28.951Z,3.35
2022-09-07T18:49:57.538Z,3.60
2022-09-07T18:55:13.008Z,3.70
2022-09-07T18:57:40.294Z,3.30
2022-09-07T19:00:09.486Z,3.10
2022-09-07T19:02:37.190Z,3.42
2022-09-07T19:07:53.328Z,3.03
2022-09-07T19:10:20.841Z,3.20
2022-09-07T19:12:48.068Z,3.00
2022-09-07T19:15:15.666Z,3.00
2022-09-07T19:17:44.270Z,3.03
2022-09-07T19:20:11.862Z,3.53
2022-09-07T19:22:39.341Z,3.50
2022-09-07T19:25:06.953Z,3.35
2022-09-07T19:27:34.444Z,3.20
2022-09-07T19:30:01.882Z,3.47
2022-09-07T19:32:29.282Z,3.53
2022-09-07T19:34:56.846Z,3.75
2022-09-07T19:37:25.521Z,4.10
2022-09-07T19:39:56.636Z,3.92
2022-09-07T19:42:25.303Z,4.03
2022-09-07T19:44:53.830Z,3.97
2022-09-07T19:47:21.979Z,4.55
2022-09-07T19:49:49.342Z,4.43
2022-09-07T19:52:16.662Z,4.45
2022-09-07T19:54:43.994Z,4.65
2022-09-07T19:57:11.449Z,4.72
2022-09-07T19:59:38.787Z,4.80
2022-09-07T20:02:07.163Z,4.50
2022-09-07T20:04:35.830Z,4.10
2022-09-07T20:07:06.622Z,4.88
2022-09-07T20:09:34.247Z,4.07
2022-09-07T20:12:03.723Z,4.70
2022-09-07T20:14:31.050Z,4.47
2022-09-07T20:16:58.429Z,4.63
2022-09-07T20:19:25.839Z,4.75
2022-09-07T20:21:56.094Z,4.70
2022-09-07T20:24:23.424Z,4.30
2022-09-07T20:26:50.768Z,4.32
2022-09-07T20:29:27.820Z,4.28
2022-09-07T20:31:59.371Z,4.32
2022-09-07T20:34:28.050Z,4.03
2022-09-07T20:36:56.846Z,3.78
2022-09-07T20:39:24.268Z,3.88
2022-09-07T20:41:51.804Z,3.60
2022-09-07T20:44:19.306Z,3.80
2022-09-07T20:46:46.723Z,3.63
2022-09-07T20:49:14.009Z,3.50
2022-09-07T20:51:41.444Z,3.17
2022-09-07T20:54:08.658Z,3.50
2022-09-07T20:56:35.926Z,3.90
2022-09-07T20:59:03.954Z,3.80
2022-09-07T21:01:32.619Z,3.63
2022-09-07T21:04:01.291Z,4.10
2022-09-07T21:06:29.578Z,4.20
2022-09-07T21:08:57.985Z,3.45
2022-09-07T21:11:31.165Z,3.05
2022-09-07T21:14:06.991Z,3.30
2022-09-07T21:16:35.358Z,2.97
2022-09-07T21:19:05.140Z,3.20
2022-09-07T21:21:39.333Z,3.45
2022-09-07T21:24:15.076Z,3.15
2022-09-07T21:26:42.439Z,2.80
2022-09-07T21:29:15.732Z,2.97
2022-09-07T21:31:46.380Z,2.75
2022-09-07T21:34:14.941Z,2.63
2022-09-07T21:36:42.720Z,3.00
2022-09-07T21:39:13.843Z,2.28
2022-09-07T21:44:13.047Z,2.30
2022-09-07T21:46:41.521Z,2.25
2022-09-07T21:49:11.733Z,2.50
2022-09-07T21:51:39.225Z,2.70
2022-09-07T21:54:07.674Z,2.70
2022-09-07T21:56:35.052Z,2.30
2022-09-07T21:59:02.759Z,2.38
2022-09-07T22:01:30.878Z,3.30
2022-09-07T22:04:00.908Z,2.60
2022-09-07T22:06:29.207Z,2.28
2022-09-07T22:08:56.873Z,2.33
2022-09-07T22:11:26.204Z,2.50
2022-09-07T22:13:55.664Z,3.15
2022-09-07T22:16:23.355Z,3.22
2022-09-07T22:18:50.778Z,3.05
2022-09-07T22:21:29.112Z,3.10
2022-09-07T22:24:02.179Z,3.50
2022-09-07T22:26:35.281Z,3.60
2022-09-07T22:29:02.787Z,3.00
2022-09-07T22:31:32.405Z,3.30
2022-09-07T22:34:01.940Z,3.50
2022-09-07T22:36:32.787Z,3.88
2022-09-07T22:39:03.501Z,3.15
2022-09-07T22:41:34.100Z,3.45
2022-09-07T22:44:20.286Z,3.17
2022-09-07T22:46:50.347Z,3.50
2022-09-07T22:49:18.048Z,3.65
2022-09-07T22:51:45.750Z,3.60
2022-09-07T22:54:13.221Z,3.70
2022-09-07T22:56:40.927Z,4.35
2022-09-07T22:59:09.387Z,5.28
2022-09-07T23:01:37.396Z,5.32
2022-09-07T23:04:05.042Z,5.60
2022-09-07T23:06:37.821Z,5.07
2022-09-07T23:09:12.384Z,5.20
2022-09-07T23:11:39.749Z,5.30
2022-09-07T23:14:11.917Z,4.75
2022-09-07T23:16:39.518Z,5.07
2022-09-07T23:19:06.967Z,4.40
2022-09-07T23:21:34.227Z,4.38
2022-09-07T23:24:02.098Z,4.95
2022-09-07T23:26:31.356Z,5.00
2022-09-07T23:29:04.792Z,5.07
2022-09-07T23:31:34.898Z,4.95
2022-09-07T23:34:02.874Z,4.75
2022-09-07T23:36:30.807Z,4.60
2022-09-07T23:38:59.517Z,4.40
2022-09-07T23:41:27.824Z,4.28
2022-09-07T23:43:55.376Z,4.78
2022-09-07T23:46:23.463Z,4.40
2022-09-07T23:48:51.159Z,4.22
2022-09-07T23:51:23.535Z,4.70
2022-09-07T23:53:52.862Z,4.13
2022-09-07T23:56:21.565Z,3.90
2022-09-07T23:58:48.857Z,3.80
